Time;durP1;ratioP1;P1;durP2;ratioP2;P2;SDS_P1;SDS_P2;PMS_P1;PMS_P2;Temp;Humidity;BMP_temperature;BMP_pressure;BME280_temperature;BME280_humidity;BME280_pressure;Samples;Min_cycle;Max_cycle;Signal;HPM_P1;HPM_P2
2022/01/13 00:00:14;;;;;;;34.73;18.77;;;5.30;99.90;;;;;;645897;221;26561;-82
2022/01/13 00:02:42;;;;;;;37.03;19.07;;;5.30;99.90;;;;;;638649;222;26562;-86
2022/01/13 00:05:09;;;;;;;30.97;17.67;;;5.30;99.90;;;;;;637719;224;26542;-83
2022/01/13 00:07:37;;;;;;;36.97;20.10;;;5.40;99.90;;;;;;640229;222;26560;-83
2022/01/13 00:10:04;;;;;;;36.10;19.33;;;5.50;99.90;;;;;;637513;224;26916;-84
2022/01/13 00:12:37;;;;;;;32.20;18.80;;;5.80;99.90;;;;;;639579;224;26524;-83
2022/01/13 00:18:03;;;;;;;36.07;18.90;;;5.30;99.90;;;;;;644769;221;26696;-83
2022/01/13 00:25:43;;;;;;;34.03;19.87;;;5.30;99.90;;;;;;647847;221;26560;-82
2022/01/13 00:28:19;;;;;;;36.53;18.67;;;5.20;99.90;;;;;;639698;224;26588;-83
2022/01/13 00:30:41;;;;;;;34.97;20.13;;;5.10;99.90;;;;;;643922;222;26553;-82
2022/01/13 00:33:11;;;;;;;37.93;19.80;;;5.30;99.90;;;;;;647791;221;26609;-82
2022/01/13 00:35:36;;;;;;;33.70;19.10;;;5.30;99.90;;;;;;647415;221;26512;-83
2022/01/13 00:38:03;;;;;;;34.73;20.60;;;5.30;99.90;;;;;;638911;224;26588;-83
2022/01/13 00:40:31;;;;;;;33.37;20.20;;;5.10;99.90;;;;;;638501;224;26888;-81
2022/01/13 00:42:58;;;;;;;38.17;21.23;;;5.30;99.90;;;;;;637146;222;26607;-82
2022/01/13 00:45:25;;;;;;;36.93;20.77;;;5.40;99.90;;;;;;639176;221;26827;-81
2022/01/13 00:47:52;;;;;;;35.10;20.83;;;5.50;99.90;;;;;;646997;217;26597;-82
2022/01/13 00:50:21;;;;;;;37.83;21.43;;;5.00;99.90;;;;;;640675;224;26592;-82
2022/01/13 00:52:48;;;;;;;39.63;22.10;;;5.00;99.90;;;;;;638205;223;26563;-83
2022/01/13 00:55:21;;;;;;;37.30;21.20;;;5.10;99.90;;;;;;640071;224;26858;-82
2022/01/13 00:57:43;;;;;;;37.13;20.90;;;5.20;99.90;;;;;;637437;224;26569;-83
2022/01/13 01:00:10;;;;;;;37.17;20.07;;;5.30;99.90;;;;;;638678;221;26823;-82
2022/01/13 01:02:37;;;;;;;33.47;22.47;;;5.30;99.90;;;;;;643398;222;26860;-82
2022/01/13 01:05:05;;;;;;;38.03;22.50;;;5.50;99.90;;;;;;649275;221;26733;-82
2022/01/13 01:07:35;;;;;;;39.97;21.63;;;5.20;99.90;;;;;;640262;224;26513;-81
2022/01/13 01:10:02;;;;;;;46.00;23.00;;;5.30;99.90;;;;;;638849;224;26854;-82
2022/01/13 01:12:31;;;;;;;39.77;21.57;;;5.50;99.90;;;;;;642644;222;26583;-82
2022/01/13 01:14:58;;;;;;;36.80;20.87;;;5.50;99.90;;;;;;641532;222;26559;-81
2022/01/13 01:17:24;;;;;;;46.07;21.83;;;5.50;99.90;;;;;;640282;219;26576;-82
2022/01/13 01:19:52;;;;;;;39.27;22.83;;;5.60;99.90;;;;;;639250;221;26566;-83
2022/01/13 01:25:33;;;;;;;41.13;22.50;;;5.40;99.90;;;;;;640523;224;26512;-82
2022/01/13 01:27:48;;;;;;;36.43;21.67;;;5.40;99.90;;;;;;642619;222;26512;-83
2022/01/13 01:30:23;;;;;;;38.47;22.40;;;5.50;99.90;;;;;;638162;223;27554;-82
2022/01/13 01:32:40;;;;;;;40.63;21.77;;;5.40;99.90;;;;;;638496;222;26841;-82
2022/01/13 01:35:13;;;;;;;40.67;22.70;;;5.50;99.90;;;;;;646486;221;26492;-82
2022/01/13 01:37:33;;;;;;;40.80;22.70;;;5.70;99.90;;;;;;637392;225;26895;-82
2022/01/13 01:40:01;;;;;;;38.97;23.07;;;5.70;99.90;;;;;;637805;222;26939;-82
2022/01/13 01:42:28;;;;;;;42.13;22.10;;;5.70;99.90;;;;;;637639;224;26511;-83
2022/01/13 01:44:56;;;;;;;39.10;22.07;;;5.80;99.90;;;;;;645288;222;26748;-82
2022/01/13 01:47:22;;;;;;;42.70;23.93;;;5.70;99.90;;;;;;637807;222;26569;-82
2022/01/13 01:49:52;;;;;;;43.10;23.77;;;5.40;99.90;;;;;;638309;224;26516;-83
2022/01/13 01:52:17;;;;;;;40.77;23.67;;;5.40;99.90;;;;;;640574;224;26572;-82
2022/01/13 01:54:45;;;;;;;46.33;24.00;;;5.10;99.90;;;;;;638005;223;26797;-82
2022/01/13 01:57:12;;;;;;;39.90;24.60;;;5.10;99.90;;;;;;647884;221;26793;-81
2022/01/13 01:59:41;;;;;;;43.20;24.43;;;5.20;99.90;;;;;;637130;219;26603;-82
2022/01/13 02:02:07;;;;;;;44.33;25.63;;;5.00;99.90;;;;;;639161;224;26776;-82
2022/01/13 02:04:33;;;;;;;45.13;25.60;;;4.90;99.90;;;;;;639142;223;26532;-82
2022/01/13 02:07:04;;;;;;;49.67;27.67;;;4.90;99.90;;;;;;646034;222;26753;-84
2022/01/13 02:09:28;;;;;;;51.20;26.70;;;4.80;99.90;;;;;;648101;221;26539;-82
2022/01/13 02:11:59;;;;;;;50.03;27.73;;;4.90;99.90;;;;;;639732;224;27010;-82
2022/01/13 02:14:36;;;;;;;53.10;27.83;;;4.80;99.90;;;;;;644410;221;26490;-82
2022/01/13 02:17:14;;;;;;;46.10;27.80;;;4.80;99.90;;;;;;642648;221;26525;-87
2022/01/13 02:19:39;;;;;;;59.97;30.50;;;4.70;99.90;;;;;;647395;222;26485;-82
2022/01/13 02:22:06;;;;;;;51.20;26.20;;;4.70;99.90;;;;;;643323;222;27025;-82
2022/01/13 02:24:33;;;;;;;53.13;27.67;;;4.80;99.90;;;;;;645101;221;26526;-82
2022/01/13 02:27:00;;;;;;;50.60;23.57;;;4.90;99.90;;;;;;639434;221;26796;-82
2022/01/13 02:29:27;;;;;;;46.40;23.63;;;4.90;99.90;;;;;;637431;224;26573;-82
2022/01/13 02:31:55;;;;;;;37.83;23.47;;;4.80;99.90;;;;;;639081;224;26833;-83
2022/01/13 02:34:23;;;;;;;41.77;24.23;;;5.00;99.90;;;;;;638814;224;26852;-83
2022/01/13 02:36:51;;;;;;;46.37;26.03;;;4.80;99.90;;;;;;640510;224;26510;-83
2022/01/13 02:39:20;;;;;;;46.83;25.83;;;5.30;99.90;;;;;;641027;222;26531;-82
2022/01/13 02:41:47;;;;;;;42.07;25.53;;;5.30;99.90;;;;;;645095;222;26811;-82
2022/01/13 02:44:18;;;;;;;49.20;25.37;;;5.10;99.90;;;;;;645101;221;26578;-82
2022/01/13 02:49:24;;;;;;;49.83;24.70;;;5.00;99.90;;;;;;637491;224;26614;-82
2022/01/13 02:51:52;;;;;;;43.60;25.07;;;5.20;99.90;;;;;;641353;221;26594;-82
2022/01/13 02:54:19;;;;;;;43.73;24.60;;;5.10;99.90;;;;;;639284;223;26871;-82
2022/01/13 02:56:46;;;;;;;45.13;24.87;;;5.40;99.90;;;;;;644811;222;26522;-82
2022/01/13 02:59:13;;;;;;;45.83;24.87;;;5.40;99.90;;;;;;641648;222;26769;-82
2022/01/13 03:01:40;;;;;;;44.77;25.13;;;5.20;99.90;;;;;;639875;223;26616;-82
2022/01/13 03:04:08;;;;;;;46.30;26.93;;;5.40;99.90;;;;;;637103;223;27247;-82
2022/01/13 03:06:38;;;;;;;49.97;24.33;;;5.30;99.90;;;;;;637223;225;26560;-82
2022/01/13 03:09:04;;;;;;;43.33;24.10;;;5.20;99.90;;;;;;637203;225;26577;-82
2022/01/13 03:11:34;;;;;;;50.07;24.57;;;5.20;99.90;;;;;;637298;225;26878;-82
2022/01/13 03:13:58;;;;;;;48.17;25.43;;;5.20;99.90;;;;;;637075;225;26851;-82
2022/01/13 03:16:25;;;;;;;44.87;24.90;;;5.00;99.90;;;;;;643135;222;26579;-83
2022/01/13 03:18:52;;;;;;;45.23;25.00;;;5.00;99.90;;;;;;649565;221;27355;-82
2022/01/13 03:21:20;;;;;;;43.97;25.23;;;5.00;99.90;;;;;;649594;221;26539;-82
2022/01/13 03:23:47;;;;;;;51.30;26.53;;;4.90;99.90;;;;;;645159;222;26814;-82
2022/01/13 03:26:14;;;;;;;49.73;26.47;;;5.00;99.90;;;;;;638832;224;26508;-83
2022/01/13 03:29:04;;;;;;;48.40;25.27;;;5.20;99.90;;;;;;637004;225;26792;-83
2022/01/13 03:31:22;;;;;;;51.23;26.23;;;5.20;99.90;;;;;;636796;224;26633;-81
2022/01/13 03:33:50;;;;;;;45.87;26.03;;;5.60;99.90;;;;;;640599;224;26532;-81
2022/01/13 03:36:17;;;;;;;44.73;24.83;;;5.60;99.90;;;;;;643840;222;26581;-83
2022/01/13 03:38:45;;;;;;;44.77;25.97;;;5.50;99.90;;;;;;639972;222;26793;-81
2022/01/13 03:41:12;;;;;;;51.90;26.53;;;5.40;99.90;;;;;;636999;224;26803;-82
2022/01/13 03:43:39;;;;;;;55.27;26.53;;;5.40;99.90;;;;;;639473;222;26784;-82
2022/01/13 03:46:06;;;;;;;46.33;25.63;;;5.10;99.90;;;;;;642684;222;26939;-82
2022/01/13 03:48:33;;;;;;;48.07;25.50;;;5.20;99.90;;;;;;639154;224;26592;-82
2022/01/13 03:51:01;;;;;;;42.77;24.80;;;5.60;99.90;;;;;;637683;224;26826;-83
2022/01/13 03:53:48;;;;;;;51.33;26.67;;;5.30;99.90;;;;;;648651;221;26802;-83
2022/01/13 03:56:27;;;;;;;54.47;28.03;;;5.20;99.90;;;;;;631271;219;26599;-82
2022/01/13 03:59:03;;;;;;;51.83;27.53;;;4.80;99.90;;;;;;646199;222;26499;-83
2022/01/13 04:01:38;;;;;;;46.57;25.70;;;4.80;99.90;;;;;;647177;221;26616;-83
2022/01/13 04:04:06;;;;;;;49.70;26.20;;;4.90;99.90;;;;;;643387;221;26571;-82
2022/01/13 04:06:37;;;;;;;47.37;25.10;;;4.90;99.90;;;;;;644065;222;26776;-82
2022/01/13 04:09:04;;;;;;;47.03;25.93;;;4.90;99.90;;;;;;639427;222;26993;-83
2022/01/13 04:11:32;;;;;;;52.00;25.77;;;5.10;99.90;;;;;;640647;224;26536;-83
2022/01/13 04:14:01;;;;;;;45.00;26.10;;;5.50;99.90;;;;;;640860;223;26806;-83
2022/01/13 04:16:27;;;;;;;46.47;25.73;;;5.60;99.90;;;;;;638703;224;26576;-83
2022/01/13 04:18:55;;;;;;;46.30;25.60;;;5.60;99.90;;;;;;639927;224;26816;-83
2022/01/13 04:21:21;;;;;;;49.57;26.13;;;5.60;99.90;;;;;;638782;221;26610;-83
2022/01/13 04:23:49;;;;;;;48.53;25.23;;;5.40;99.90;;;;;;644432;221;26583;-83
2022/01/13 04:26:19;;;;;;;43.87;25.20;;;5.30;99.90;;;;;;637394;224;26579;-82
2022/01/13 04:28:45;;;;;;;50.33;26.73;;;5.30;99.90;;;;;;639619;224;26579;-83
2022/01/13 04:31:11;;;;;;;48.23;28.17;;;5.20;99.90;;;;;;637759;223;26836;-82
2022/01/13 04:33:39;;;;;;;49.53;26.87;;;5.10;99.90;;;;;;642188;222;26779;-82
2022/01/13 04:36:06;;;;;;;49.73;26.97;;;5.40;99.90;;;;;;642869;222;26565;-83
2022/01/13 04:38:33;;;;;;;59.00;29.10;;;5.30;99.90;;;;;;637602;224;26776;-84
2022/01/13 04:41:02;;;;;;;55.20;28.30;;;5.00;99.90;;;;;;637650;224;26554;-82
2022/01/13 04:43:29;;;;;;;52.33;28.00;;;5.00;99.90;;;;;;648290;221;26771;-83
2022/01/13 04:45:56;;;;;;;53.20;27.63;;;5.30;99.90;;;;;;639708;224;26496;-82
2022/01/13 04:48:24;;;;;;;57.03;29.50;;;5.50;99.90;;;;;;637028;225;26572;-83
2022/01/13 04:50:52;;;;;;;60.30;28.60;;;5.50;99.90;;;;;;639725;224;26836;-82
2022/01/13 04:53:19;;;;;;;64.97;30.60;;;5.10;99.90;;;;;;646829;222;26580;-83
2022/01/13 04:55:51;;;;;;;55.20;28.57;;;5.00;99.90;;;;;;648142;221;26565;-83
2022/01/13 04:58:16;;;;;;;54.93;28.73;;;4.80;99.90;;;;;;645133;221;26841;-84
2022/01/13 05:00:43;;;;;;;60.23;31.17;;;4.90;99.90;;;;;;640497;224;26552;-83
2022/01/13 05:03:10;;;;;;;53.30;29.23;;;5.00;99.90;;;;;;640872;222;26508;-83
2022/01/13 05:05:38;;;;;;;62.10;30.43;;;5.10;99.90;;;;;;647091;221;26595;-83
2022/01/13 05:08:06;;;;;;;59.53;31.30;;;5.30;99.90;;;;;;649055;220;26572;-83
2022/01/13 05:10:34;;;;;;;68.03;32.37;;;5.00;99.90;;;;;;648371;222;26547;-83
2022/01/13 05:13:02;;;;;;;54.53;30.70;;;5.00;99.90;;;;;;639809;222;26583;-83
2022/01/13 05:15:28;;;;;;;66.17;31.10;;;5.00;99.90;;;;;;637812;225;26579;-83
2022/01/13 05:18:07;;;;;;;61.93;33.13;;;4.90;99.90;;;;;;637620;225;26789;-83
2022/01/13 05:20:29;;;;;;;56.97;29.33;;;4.50;99.90;;;;;;638608;224;26605;-82
2022/01/13 05:22:54;;;;;;;64.73;32.57;;;4.50;99.90;;;;;;640925;224;27085;-83
2022/01/13 05:25:22;;;;;;;62.03;30.30;;;4.70;99.90;;;;;;637659;219;26557;-82
2022/01/13 05:27:49;;;;;;;65.17;31.83;;;4.80;99.90;;;;;;637367;225;26569;-83
2022/01/13 05:30:18;;;;;;;65.03;30.07;;;4.80;99.90;;;;;;639114;224;26623;-83
2022/01/13 05:32:45;;;;;;;67.70;32.90;;;4.80;99.90;;;;;;638415;224;26593;-83
2022/01/13 05:35:11;;;;;;;69.33;31.67;;;4.50;99.90;;;;;;640355;224;26577;-83
2022/01/13 05:37:38;;;;;;;66.93;31.73;;;4.60;99.90;;;;;;637458;222;26930;-83
2022/01/13 05:40:06;;;;;;;69.67;33.70;;;4.50;99.90;;;;;;637375;221;26569;-83
2022/01/13 05:42:33;;;;;;;65.73;32.03;;;4.40;99.90;;;;;;639422;224;26792;-83
2022/01/13 05:45:02;;;;;;;62.07;32.30;;;4.60;99.90;;;;;;645963;222;26549;-83
2022/01/13 05:47:27;;;;;;;71.20;31.87;;;4.50;99.90;;;;;;637650;224;27452;-83
2022/01/13 05:49:54;;;;;;;62.20;31.97;;;4.50;99.90;;;;;;640562;224;26534;-83
2022/01/13 05:52:22;;;;;;;65.87;31.60;;;4.70;99.90;;;;;;638715;224;26578;-83
2022/01/13 05:54:50;;;;;;;70.30;33.23;;;4.90;99.90;;;;;;637211;225;26554;-83
2022/01/13 05:57:18;;;;;;;66.83;33.10;;;4.70;99.90;;;;;;645524;222;26579;-83
2022/01/13 05:59:45;;;;;;;68.43;34.47;;;4.70;99.90;;;;;;638102;224;26570;-83
2022/01/13 06:02:12;;;;;;;65.57;32.00;;;4.80;99.90;;;;;;638910;224;26575;-83
2022/01/13 06:04:40;;;;;;;56.03;29.87;;;4.80;99.90;;;;;;637070;225;26580;-82
2022/01/13 06:07:07;;;;;;;67.80;32.37;;;4.80;99.90;;;;;;639955;222;26532;-83
2022/01/13 06:09:34;;;;;;;63.20;31.07;;;4.70;99.90;;;;;;637929;224;26777;-83
2022/01/13 06:12:03;;;;;;;60.50;29.90;;;4.80;99.90;;;;;;639118;224;26846;-83
2022/01/13 06:14:29;;;;;;;63.13;31.23;;;4.60;99.90;;;;;;639061;224;26578;-82
2022/01/13 06:16:56;;;;;;;57.20;29.07;;;4.60;99.90;;;;;;637814;224;26831;-82
2022/01/13 06:19:23;;;;;;;57.40;30.00;;;4.90;99.90;;;;;;639259;223;26559;-82
2022/01/13 06:21:50;;;;;;;67.20;30.97;;;4.90;99.90;;;;;;645006;221;26807;-83
2022/01/13 06:24:18;;;;;;;63.50;31.63;;;5.00;99.90;;;;;;649665;221;26583;-83
2022/01/13 06:26:45;;;;;;;67.87;30.90;;;4.80;99.90;;;;;;648095;222;26790;-83
2022/01/13 06:29:12;;;;;;;61.87;30.30;;;4.60;99.90;;;;;;639051;222;26505;-83
2022/01/13 06:31:39;;;;;;;68.23;30.57;;;4.80;99.90;;;;;;641168;223;26802;-83
2022/01/13 06:34:06;;;;;;;57.53;27.30;;;4.90;99.90;;;;;;639688;223;26633;-83
2022/01/13 06:36:34;;;;;;;61.37;28.73;;;4.80;99.90;;;;;;639691;224;26568;-84
2022/01/13 06:39:01;;;;;;;52.80;27.17;;;5.10;99.90;;;;;;637925;224;26568;-82
2022/01/13 06:41:28;;;;;;;64.93;30.07;;;5.10;99.90;;;;;;637951;224;26618;-82
2022/01/13 06:43:56;;;;;;;56.90;26.53;;;4.90;99.90;;;;;;640863;224;26572;-83
2022/01/13 06:46:24;;;;;;;57.40;27.40;;;4.90;99.90;;;;;;643196;222;26573;-84
2022/01/13 06:48:52;;;;;;;52.37;26.20;;;4.90;99.90;;;;;;639978;222;26552;-83
2022/01/13 06:51:20;;;;;;;49.83;26.40;;;4.80;99.90;;;;;;640301;224;26599;-82
2022/01/13 06:53:47;;;;;;;53.77;26.90;;;4.80;99.90;;;;;;637394;224;26604;-83
2022/01/13 06:56:14;;;;;;;56.20;27.67;;;4.70;99.90;;;;;;638801;224;26589;-83
2022/01/13 06:58:45;;;;;;;57.60;27.23;;;4.80;99.90;;;;;;638197;224;26819;-83
2022/01/13 07:01:09;;;;;;;63.37;27.33;;;5.10;99.90;;;;;;639875;224;26609;-83
2022/01/13 07:03:36;;;;;;;56.03;27.17;;;5.10;99.90;;;;;;639766;219;26783;-83
2022/01/13 07:06:03;;;;;;;54.60;28.47;;;5.20;99.90;;;;;;638403;224;26572;-83
2022/01/13 07:08:30;;;;;;;61.20;28.40;;;5.40;99.90;;;;;;638334;224;26935;-83
2022/01/13 07:10:59;;;;;;;61.30;28.33;;;5.20;99.90;;;;;;639491;221;26822;-83
2022/01/13 07:13:25;;;;;;;58.53;27.93;;;5.20;99.90;;;;;;640062;222;26819;-82
2022/01/13 07:15:52;;;;;;;60.27;28.70;;;5.10;99.90;;;;;;641980;222;26775;-83
2022/01/13 07:18:19;;;;;;;56.97;28.20;;;5.10;99.90;;;;;;644391;222;26839;-84
2022/01/13 07:20:48;;;;;;;60.43;29.23;;;4.90;99.90;;;;;;642180;222;26615;-83
2022/01/13 07:23:13;;;;;;;58.67;27.73;;;4.80;99.90;;;;;;637119;224;26835;-83
2022/01/13 07:25:41;;;;;;;50.60;26.70;;;5.10;99.90;;;;;;637889;224;26539;-83
2022/01/13 07:28:08;;;;;;;63.37;29.17;;;5.30;99.90;;;;;;638734;222;26973;-80
2022/01/13 07:30:35;;;;;;;59.97;28.57;;;5.20;99.90;;;;;;641842;221;26588;-80
2022/01/13 07:33:02;;;;;;;57.67;28.87;;;5.20;99.90;;;;;;641431;224;26814;-80
2022/01/13 07:35:29;;;;;;;62.77;28.90;;;5.30;99.90;;;;;;638085;223;26800;-80
2022/01/13 07:37:58;;;;;;;52.70;26.50;;;5.20;99.90;;;;;;639317;224;26791;-80
2022/01/13 07:40:24;;;;;;;52.00;26.63;;;5.00;99.90;;;;;;641737;221;26646;-80
2022/01/13 07:42:51;;;;;;;57.33;28.87;;;4.80;99.90;;;;;;641258;222;27309;-79
2022/01/13 07:45:18;;;;;;;59.20;27.97;;;4.70;99.90;;;;;;639588;222;26515;-80
2022/01/13 07:47:45;;;;;;;60.03;26.90;;;4.90;99.90;;;;;;641106;222;27140;-80
2022/01/13 07:50:13;;;;;;;64.43;26.67;;;5.00;99.90;;;;;;641444;222;26625;-77
2022/01/13 07:52:41;;;;;;;52.70;28.23;;;4.80;99.90;;;;;;640766;222;26678;-78
2022/01/13 07:55:09;;;;;;;59.10;29.77;;;4.80;99.90;;;;;;642458;221;26838;-78
2022/01/13 07:57:36;;;;;;;60.57;28.20;;;4.80;99.90;;;;;;644898;222;26577;-77
2022/01/13 08:00:04;;;;;;;57.87;26.30;;;4.90;99.90;;;;;;637672;222;26577;-77
2022/01/13 08:02:31;;;;;;;48.13;24.83;;;5.10;99.90;;;;;;638632;221;26680;-77
2022/01/13 08:04:58;;;;;;;59.77;26.80;;;5.10;99.90;;;;;;645723;221;26585;-77
2022/01/13 08:07:25;;;;;;;58.03;27.27;;;5.20;99.90;;;;;;639572;224;26738;-78
2022/01/13 08:09:52;;;;;;;61.93;26.43;;;5.20;99.90;;;;;;638817;222;26819;-78
2022/01/13 08:12:20;;;;;;;61.33;27.70;;;5.40;99.90;;;;;;644432;222;26776;-78
2022/01/13 08:14:48;;;;;;;52.77;27.00;;;5.50;99.90;;;;;;640117;222;26782;-78
2022/01/13 08:19:45;;;;;;;58.17;26.77;;;5.40;99.90;;;;;;642722;221;26572;-78
2022/01/13 08:19:46;;;;;;;56.57;27.97;;;5.10;99.90;;;;;;642282;221;26846;-78
2022/01/13 08:22:13;;;;;;;57.43;27.60;;;5.20;99.90;;;;;;639959;221;26779;-80
2022/01/13 08:24:42;;;;;;;60.37;26.83;;;5.20;99.90;;;;;;637121;224;26529;-83
2022/01/13 08:27:10;;;;;;;51.60;25.13;;;4.90;99.90;;;;;;640056;224;26535;-80
2022/01/13 08:29:38;;;;;;;52.87;26.30;;;4.80;99.90;;;;;;637103;219;26573;-79
2022/01/13 08:32:06;;;;;;;59.27;27.00;;;5.10;99.90;;;;;;637239;226;26592;-80
2022/01/13 08:34:34;;;;;;;57.47;27.93;;;5.20;99.90;;;;;;638087;222;26792;-79
2022/01/13 08:37:02;;;;;;;56.17;26.83;;;5.10;99.90;;;;;;640008;224;26557;-79
2022/01/13 08:39:32;;;;;;;57.50;27.13;;;5.10;99.90;;;;;;639620;222;27263;-79
2022/01/13 08:41:57;;;;;;;55.77;28.30;;;5.20;99.90;;;;;;641064;220;26838;-79
2022/01/13 08:44:24;;;;;;;56.60;27.93;;;5.30;99.90;;;;;;641922;220;26889;-79
2022/01/13 08:46:51;;;;;;;55.63;25.83;;;5.20;99.90;;;;;;638926;223;26801;-80
2022/01/13 08:49:18;;;;;;;55.93;26.80;;;5.00;99.90;;;;;;646324;222;26799;-79
2022/01/13 08:51:46;;;;;;;55.07;25.60;;;5.10;99.90;;;;;;637721;225;26606;-78
2022/01/13 08:54:13;;;;;;;56.73;26.53;;;5.40;99.90;;;;;;637661;225;26854;-78
2022/01/13 08:56:41;;;;;;;60.47;27.37;;;5.70;99.90;;;;;;639506;224;26593;-78
2022/01/13 08:59:09;;;;;;;55.00;26.73;;;5.80;99.90;;;;;;640847;221;26560;-79
2022/01/13 09:01:37;;;;;;;60.10;27.80;;;5.40;99.90;;;;;;638491;219;26601;-77
2022/01/13 09:04:05;;;;;;;58.13;25.83;;;5.20;99.90;;;;;;638401;222;26556;-77
2022/01/13 09:06:32;;;;;;;63.70;28.60;;;5.20;99.90;;;;;;638329;221;26597;-77
2022/01/13 09:08:59;;;;;;;53.33;26.20;;;5.30;99.90;;;;;;641029;221;26557;-77
2022/01/13 09:11:26;;;;;;;55.33;26.37;;;5.30;99.90;;;;;;637900;223;26812;-77
2022/01/13 09:13:57;;;;;;;57.53;26.20;;;5.10;99.90;;;;;;644391;221;26577;-78
2022/01/13 09:16:21;;;;;;;50.67;24.60;;;5.20;99.90;;;;;;640207;222;26803;-78
2022/01/13 09:21:21;;;;;;;53.70;26.30;;;5.50;99.90;;;;;;638786;222;26590;-79
2022/01/13 09:23:48;;;;;;;48.57;23.13;;;5.50;99.90;;;;;;645411;221;26845;-81
2022/01/13 09:26:16;;;;;;;47.00;23.97;;;5.70;99.90;;;;;;640771;221;26553;-80
2022/01/13 09:28:43;;;;;;;55.77;24.97;;;6.00;99.90;;;;;;644700;221;26811;-79
2022/01/13 09:31:10;;;;;;;56.33;25.43;;;5.90;99.90;;;;;;644634;221;26600;-78
2022/01/13 09:33:37;;;;;;;51.33;25.07;;;5.60;99.90;;;;;;649343;221;26828;-79
2022/01/13 09:36:06;;;;;;;52.83;24.73;;;5.50;99.90;;;;;;640631;221;26581;-78
2022/01/13 09:38:32;;;;;;;55.07;24.20;;;5.40;99.90;;;;;;645254;222;26832;-78
2022/01/13 09:40:59;;;;;;;50.37;25.50;;;5.40;99.90;;;;;;640070;221;26608;-79
2022/01/13 09:43:26;;;;;;;55.00;26.13;;;5.30;99.90;;;;;;645125;222;26822;-78
2022/01/13 09:45:53;;;;;;;52.30;25.07;;;5.30;99.90;;;;;;648980;221;26530;-79
2022/01/13 09:48:20;;;;;;;54.97;26.33;;;5.30;99.90;;;;;;637831;224;26913;-80
2022/01/13 09:50:49;;;;;;;58.37;26.10;;;5.40;99.90;;;;;;639085;224;26579;-83
2022/01/13 09:53:16;;;;;;;56.37;24.57;;;5.50;99.90;;;;;;638130;223;26579;-82
2022/01/13 09:55:44;;;;;;;54.37;24.30;;;5.70;99.90;;;;;;641212;223;26591;-81
2022/01/13 09:58:12;;;;;;;53.63;25.57;;;5.30;99.90;;;;;;640897;224;26580;-81
2022/01/13 10:00:40;;;;;;;56.90;25.13;;;5.30;99.90;;;;;;641458;222;26611;-82
2022/01/13 10:03:10;;;;;;;54.87;26.27;;;5.50;99.90;;;;;;642322;221;26515;-80
2022/01/13 10:05:37;;;;;;;50.17;25.30;;;5.40;99.90;;;;;;644120;222;27115;-81
2022/01/13 10:08:05;;;;;;;50.77;24.27;;;5.40;99.90;;;;;;639836;224;26516;-83
2022/01/13 10:10:34;;;;;;;57.40;25.97;;;5.30;99.90;;;;;;640068;221;26806;-83
2022/01/13 10:13:04;;;;;;;49.07;23.70;;;5.50;99.90;;;;;;638535;223;26956;-84
2022/01/13 10:18:03;;;;;;;49.87;23.70;;;5.50;99.90;;;;;;637368;222;26589;-81
2022/01/13 10:20:30;;;;;;;50.63;24.40;;;5.50;99.90;;;;;;643208;222;26571;-80
2022/01/13 10:23:07;;;;;;;54.90;23.93;;;5.50;99.90;;;;;;648014;222;27020;-80
2022/01/13 10:25:36;;;;;;;58.13;25.27;;;5.40;99.90;;;;;;640632;222;26675;-81
2022/01/13 10:28:10;;;;;;;52.00;24.77;;;5.40;99.90;;;;;;641924;222;26533;-81
2022/01/13 10:30:38;;;;;;;52.67;23.93;;;5.30;99.90;;;;;;636837;225;26786;-81
2022/01/13 10:33:13;;;;;;;51.63;24.47;;;5.40;99.90;;;;;;642241;222;26797;-82
2022/01/13 10:35:40;;;;;;;49.93;22.27;;;5.20;99.90;;;;;;639387;222;26597;-82
2022/01/13 10:38:07;;;;;;;54.70;25.27;;;5.10;99.90;;;;;;647679;221;26844;-81
2022/01/13 10:40:40;;;;;;;50.90;23.97;;;5.20;99.90;;;;;;640082;221;26599;-82
2022/01/13 10:43:10;;;;;;;50.23;22.03;;;5.30;99.90;;;;;;646626;222;26858;-82
2022/01/13 10:45:38;;;;;;;52.50;24.40;;;5.30;99.90;;;;;;642104;222;26547;-83
2022/01/13 10:48:15;;;;;;;52.13;24.43;;;5.30;99.90;;;;;;646745;222;26559;-80
2022/01/13 10:50:45;;;;;;;52.93;23.10;;;5.30;99.90;;;;;;643259;222;26627;-81
2022/01/13 10:53:15;;;;;;;58.03;24.30;;;5.30;99.90;;;;;;642878;222;26550;-79
2022/01/13 10:55:43;;;;;;;52.00;24.23;;;5.20;99.90;;;;;;647038;222;26595;-80
2022/01/13 10:58:10;;;;;;;48.63;23.10;;;5.20;99.90;;;;;;639340;222;26564;-82
2022/01/13 11:00:37;;;;;;;48.43;22.77;;;5.30;99.90;;;;;;638203;224;26812;-80
2022/01/13 11:03:08;;;;;;;50.97;23.47;;;5.30;99.90;;;;;;643849;222;27247;-78
2022/01/13 11:05:35;;;;;;;50.57;24.00;;;5.30;99.90;;;;;;643655;220;26571;-78
2022/01/13 11:08:04;;;;;;;49.33;22.33;;;5.30;99.90;;;;;;648163;221;26523;-81
2022/01/13 11:10:31;;;;;;;48.63;23.20;;;5.30;99.90;;;;;;646983;221;26882;-81
2022/01/13 11:13:00;;;;;;;42.37;21.73;;;5.40;99.90;;;;;;643030;221;26595;-76
2022/01/13 11:15:25;;;;;;;48.77;21.23;;;5.30;99.90;;;;;;641708;221;26769;-77
2022/01/13 11:17:54;;;;;;;46.37;22.67;;;5.50;99.90;;;;;;637585;224;26736;-76
2022/01/13 11:20:22;;;;;;;50.57;22.83;;;5.50;99.90;;;;;;640195;221;26835;-74
2022/01/13 11:22:48;;;;;;;43.40;23.10;;;5.40;99.90;;;;;;641446;222;26818;-75
2022/01/13 11:25:15;;;;;;;45.47;22.43;;;5.40;99.90;;;;;;643912;222;26561;-75
2022/01/13 11:27:43;;;;;;;48.83;22.23;;;5.30;99.90;;;;;;646598;222;26758;-75
2022/01/13 11:30:11;;;;;;;44.77;22.27;;;5.30;99.90;;;;;;640868;222;26549;-75
2022/01/13 11:32:39;;;;;;;43.47;20.63;;;5.50;99.90;;;;;;637802;224;26773;-75
2022/01/13 11:35:07;;;;;;;48.43;22.97;;;5.30;99.90;;;;;;637683;224;26534;-75
2022/01/13 11:37:34;;;;;;;42.87;20.97;;;5.20;99.90;;;;;;637679;224;26498;-75
2022/01/13 11:40:01;;;;;;;38.67;19.47;;;5.20;99.90;;;;;;637604;221;26563;-75
2022/01/13 11:42:28;;;;;;;48.70;21.23;;;5.30;99.90;;;;;;637379;225;26886;-75
2022/01/13 11:45:08;;;;;;;45.37;20.30;;;5.50;99.90;;;;;;637444;225;26553;-75
2022/01/13 11:47:35;;;;;;;36.33;20.17;;;5.40;99.90;;;;;;637403;224;26985;-75
2022/01/13 11:50:09;;;;;;;43.13;21.10;;;5.30;99.90;;;;;;637497;224;26551;-75
2022/01/13 11:53:06;;;;;;;45.07;21.70;;;5.40;99.90;;;;;;637459;225;26557;-75
2022/01/13 11:55:21;;;;;;;43.50;21.07;;;5.50;99.90;;;;;;635510;225;26597;-75
2022/01/13 11:57:48;;;;;;;45.83;21.83;;;5.50;99.90;;;;;;637362;225;26842;-75
2022/01/13 12:00:21;;;;;;;44.40;22.00;;;5.40;99.90;;;;;;637306;224;26622;-75
2022/01/13 12:02:49;;;;;;;45.03;23.33;;;5.30;99.90;;;;;;637179;225;26571;-75
2022/01/13 12:05:17;;;;;;;44.67;23.97;;;5.40;99.90;;;;;;637185;224;26568;-75
2022/01/13 12:07:45;;;;;;;49.43;23.67;;;5.10;99.90;;;;;;637162;225;26560;-75
2022/01/13 12:10:14;;;;;;;42.70;23.27;;;5.10;99.90;;;;;;637089;225;26839;-75
2022/01/13 12:12:42;;;;;;;49.83;25.80;;;5.20;99.90;;;;;;634592;226;26576;-74
2022/01/13 12:15:13;;;;;;;46.60;26.13;;;5.20;99.90;;;;;;637206;224;26579;-77
2022/01/13 12:18:00;;;;;;;52.03;25.93;;;5.20;99.90;;;;;;640845;220;26821;-78
2022/01/13 12:20:39;;;;;;;46.13;24.00;;;5.20;99.90;;;;;;640613;221;27270;-78
2022/01/13 12:23:04;;;;;;;46.47;23.50;;;5.20;99.90;;;;;;640513;221;26595;-77
2022/01/13 12:25:29;;;;;;;43.23;22.23;;;5.30;99.90;;;;;;646839;221;27248;-78
2022/01/13 12:27:52;;;;;;;41.50;21.47;;;5.50;99.90;;;;;;637378;224;26511;-77
2022/01/13 12:30:25;;;;;;;37.97;20.67;;;5.60;99.90;;;;;;639095;224;26871;-76
2022/01/13 12:32:52;;;;;;;40.83;22.40;;;5.30;99.90;;;;;;639001;224;26551;-77
2022/01/13 12:35:44;;;;;;;41.60;21.20;;;5.50;99.90;;;;;;637911;224;26548;-77
2022/01/13 12:38:22;;;;;;;38.57;18.80;;;5.60;99.90;;;;;;636873;225;26795;-77
2022/01/13 12:40:55;;;;;;;35.63;18.60;;;5.50;99.90;;;;;;640102;224;26578;-78
2022/01/13 12:43:34;;;;;;;40.27;20.63;;;5.40;99.90;;;;;;638279;222;26884;-78
2022/01/13 12:45:48;;;;;;;40.50;20.30;;;5.60;99.90;;;;;;637699;222;26551;-77
2022/01/13 12:48:15;;;;;;;30.97;18.17;;;5.70;99.90;;;;;;639587;224;26593;-79
2022/01/13 12:50:44;;;;;;;34.17;20.03;;;5.50;99.90;;;;;;639315;222;26637;-79
2022/01/13 12:53:13;;;;;;;33.10;18.20;;;5.70;99.90;;;;;;637968;224;26598;-78
2022/01/13 12:55:40;;;;;;;33.13;18.97;;;5.70;99.90;;;;;;637406;224;27217;-79
2022/01/13 12:58:08;;;;;;;36.10;18.93;;;5.70;99.90;;;;;;642509;222;26578;-77